Time;durP1;ratioP1;P1;durP2;ratioP2;P2;SDS_P1;SDS_P2;PMS_P1;PMS_P2;Temp;Humidity;BMP_temperature;BMP_pressure;BME280_temperature;BME280_humidity;BME280_pressure;Samples;Min_cycle;Max_cycle;Signal;HPM_P1;HPM_P2
2022/08/02 00:00:21;;;;;;;11.55;6.63;;;24.40;60.80;;;;;;5013826;28;20033;-73
2022/08/02 00:02:48;;;;;;;14.88;6.40;;;24.40;60.80;;;;;;4993573;28;20030;-72
2022/08/02 00:05:15;;;;;;;15.35;6.07;;;24.40;60.70;;;;;;5007467;28;20557;-72
2022/08/02 00:07:41;;;;;;;12.63;6.10;;;24.40;60.90;;;;;;4996320;28;20029;-73
2022/08/02 00:10:10;;;;;;;12.25;5.80;;;24.40;60.70;;;;;;4978158;28;20467;-73
2022/08/02 00:12:36;;;;;;;13.00;6.50;;;24.40;60.70;;;;;;4995529;28;20096;-72
2022/08/02 00:15:03;;;;;;;11.60;5.97;;;24.40;60.80;;;;;;5012080;28;20462;-71
2022/08/02 00:17:29;;;;;;;13.82;6.22;;;24.40;60.80;;;;;;4994843;28;20036;-72
2022/08/02 00:19:58;;;;;;;14.25;5.30;;;24.40;60.80;;;;;;4993050;28;20395;-74
2022/08/02 00:22:23;;;;;;;12.85;5.35;;;24.50;60.90;;;;;;4979431;28;20426;-76
2022/08/02 00:24:49;;;;;;;16.83;5.07;;;24.50;60.70;;;;;;5011813;28;20275;-74
2022/08/02 00:27:15;;;;;;;12.25;5.45;;;24.40;60.70;;;;;;5013112;28;20022;-73
2022/08/02 00:29:41;;;;;;;15.90;7.90;;;24.40;60.70;;;;;;4978105;28;21169;-74
2022/08/02 00:32:07;;;;;;;14.95;7.20;;;24.40;60.20;;;;;;4994974;28;20055;-74
2022/08/02 00:34:32;;;;;;;12.65;6.00;;;24.40;60.20;;;;;;5010202;28;20423;-74
2022/08/02 00:36:58;;;;;;;12.13;6.38;;;24.40;60.80;;;;;;5011249;28;20029;-73
2022/08/02 00:39:24;;;;;;;11.13;5.30;;;24.40;60.40;;;;;;4995025;28;20022;-73
2022/08/02 00:41:51;;;;;;;15.30;5.82;;;24.40;60.40;;;;;;4994713;28;20029;-74
2022/08/02 00:44:20;;;;;;;12.02;5.25;;;24.40;60.60;;;;;;5012336;28;20355;-73
2022/08/02 00:46:46;;;;;;;12.50;5.85;;;24.40;60.30;;;;;;5010660;28;20029;-74
2022/08/02 00:49:12;;;;;;;11.73;6.13;;;24.40;60.50;;;;;;5009743;28;20024;-73
2022/08/02 00:51:39;;;;;;;12.95;5.68;;;24.40;60.50;;;;;;4994464;28;20028;-74
2022/08/02 00:54:06;;;;;;;13.73;5.95;;;24.40;60.60;;;;;;4999721;28;20054;-73
2022/08/02 00:56:32;;;;;;;11.55;5.82;;;24.40;60.50;;;;;;5010468;28;20030;-73
2022/08/02 00:58:58;;;;;;;16.98;6.70;;;24.40;60.60;;;;;;5011301;28;20033;-73
2022/08/02 01:01:38;;;;;;;14.13;6.63;;;24.40;60.50;;;;;;4993073;28;20029;-73
2022/08/02 01:04:10;;;;;;;13.35;6.07;;;24.40;60.60;;;;;;5011284;28;20022;-73
2022/08/02 01:06:37;;;;;;;14.00;6.15;;;24.40;60.50;;;;;;5011516;28;20018;-73
2022/08/02 01:09:04;;;;;;;18.27;6.30;;;24.50;60.70;;;;;;4993995;28;20029;-73
2022/08/02 01:11:30;;;;;;;17.63;7.25;;;24.50;60.50;;;;;;4994090;28;20173;-74
2022/08/02 01:14:12;;;;;;;21.95;8.85;;;24.40;60.70;;;;;;5011007;28;20026;-73
2022/08/02 01:16:51;;;;;;;21.20;8.27;;;24.40;60.50;;;;;;5011982;28;20022;-73
2022/08/02 01:19:41;;;;;;;26.92;9.40;;;24.50;60.60;;;;;;5012707;28;20113;-73
2022/08/02 01:22:51;;;;;;;25.45;9.80;;;24.50;60.90;;;;;;5011931;28;20093;-73
2022/08/02 01:25:38;;;;;;;25.70;10.13;;;24.50;60.90;;;;;;4930499;29;20055;-73
2022/08/02 01:28:29;;;;;;;23.45;9.68;;;24.50;60.70;;;;;;5010906;28;20030;-73
2022/08/02 01:31:09;;;;;;;27.80;10.43;;;24.50;60.50;;;;;;5011696;28;20390;-73
2022/08/02 01:33:41;;;;;;;26.05;9.18;;;24.50;60.70;;;;;;4993707;28;20022;-74
2022/08/02 01:36:11;;;;;;;24.27;10.07;;;24.50;60.40;;;;;;5011073;28;20028;-73
2022/08/02 01:38:46;;;;;;;30.13;10.25;;;24.50;60.50;;;;;;5009598;28;20025;-74
2022/08/02 01:41:17;;;;;;;24.98;9.77;;;24.60;60.10;;;;;;5004018;28;20073;-73
2022/08/02 01:43:45;;;;;;;30.38;8.93;;;24.60;60.50;;;;;;5010637;28;20033;-73
2022/08/02 01:46:13;;;;;;;25.27;9.98;;;24.60;59.80;;;;;;5009901;28;20025;-74
2022/08/02 01:48:41;;;;;;;26.35;10.45;;;24.50;60.30;;;;;;5011627;28;20030;-74
2022/08/02 01:51:13;;;;;;;26.33;9.30;;;24.60;60.40;;;;;;5010597;28;20100;-74
2022/08/02 01:53:42;;;;;;;25.60;9.63;;;24.60;60.30;;;;;;4992196;28;20406;-74
2022/08/02 01:56:10;;;;;;;27.02;8.95;;;24.50;60.30;;;;;;4992322;28;20026;-73
2022/08/02 01:58:38;;;;;;;24.63;9.75;;;24.50;60.20;;;;;;4977755;28;20438;-74
2022/08/02 02:01:06;;;;;;;24.92;9.27;;;24.50;60.30;;;;;;5007615;28;20026;-74
2022/08/02 02:03:33;;;;;;;27.58;9.70;;;24.50;60.30;;;;;;5007117;28;20014;-74
2022/08/02 02:06:02;;;;;;;28.95;10.77;;;24.50;60.50;;;;;;4991840;28;20432;-74
2022/08/02 02:08:35;;;;;;;39.10;12.02;;;24.50;60.60;;;;;;4993281;28;20037;-74
2022/08/02 02:11:02;;;;;;;28.55;10.23;;;24.50;60.70;;;;;;5010781;28;20030;-74
2022/08/02 02:13:30;;;;;;;28.95;11.10;;;24.50;60.80;;;;;;5011778;28;20025;-74
2022/08/02 02:16:00;;;;;;;29.52;10.52;;;24.60;61.00;;;;;;5010506;28;20438;-74
2022/08/02 02:18:28;;;;;;;29.00;10.30;;;24.50;61.00;;;;;;4990117;28;20474;-74
2022/08/02 02:20:54;;;;;;;32.55;10.80;;;24.60;61.00;;;;;;4993298;28;20097;-74
2022/08/02 02:23:21;;;;;;;27.60;10.13;;;24.60;60.90;;;;;;5010200;28;20030;-74
2022/08/02 02:25:47;;;;;;;26.35;9.43;;;24.60;61.00;;;;;;5007930;28;20064;-74
2022/08/02 02:28:27;;;;;;;27.35;10.52;;;24.60;61.00;;;;;;5010083;28;20018;-74
2022/08/02 02:30:59;;;;;;;28.48;9.80;;;24.50;60.80;;;;;;4991947;28;20486;-73
2022/08/02 02:33:26;;;;;;;26.05;9.35;;;24.60;60.80;;;;;;4991916;28;20026;-73
2022/08/02 02:35:52;;;;;;;27.42;9.50;;;24.60;60.90;;;;;;5011176;28;20104;-74
2022/08/02 02:38:20;;;;;;;23.73;8.52;;;24.50;60.80;;;;;;5008639;28;20474;-74
2022/08/02 02:40:47;;;;;;;25.38;8.80;;;24.50;60.80;;;;;;4991150;28;20045;-74
2022/08/02 02:43:16;;;;;;;21.42;8.50;;;24.50;60.80;;;;;;5011082;28;20030;-74
2022/08/02 02:45:43;;;;;;;26.20;9.45;;;24.50;60.60;;;;;;5010616;28;20322;-74
2022/08/02 02:48:12;;;;;;;23.30;8.77;;;24.50;60.30;;;;;;5009468;28;20026;-73
2022/08/02 02:50:39;;;;;;;24.80;9.50;;;24.50;60.50;;;;;;5011252;28;20057;-74
2022/08/02 02:53:06;;;;;;;25.65;8.80;;;24.50;60.70;;;;;;5002584;28;20088;-74
2022/08/02 02:55:32;;;;;;;22.65;8.93;;;24.50;60.50;;;;;;5010489;28;20026;-74
2022/08/02 02:57:58;;;;;;;21.08;8.10;;;24.50;60.40;;;;;;5008917;28;20030;-74
2022/08/02 03:03:11;;;;;;;22.83;8.77;;;24.50;60.20;;;;;;5010436;28;20114;-73
2022/08/02 03:05:37;;;;;;;21.48;8.45;;;24.50;60.00;;;;;;5009204;28;20391;-74
2022/08/02 03:08:03;;;;;;;23.10;7.95;;;24.50;59.80;;;;;;5009679;28;20068;-74
2022/08/02 03:10:29;;;;;;;25.25;8.85;;;24.60;60.00;;;;;;5011194;28;20259;-73
2022/08/02 03:12:57;;;;;;;24.60;8.48;;;24.60;60.10;;;;;;5010270;28;20265;-73
2022/08/02 03:15:26;;;;;;;25.38;8.50;;;24.50;60.10;;;;;;5010139;28;20264;-73
2022/08/02 03:17:52;;;;;;;20.50;6.95;;;24.50;59.30;;;;;;5010054;28;20029;-73
2022/08/02 03:20:19;;;;;;;23.60;7.82;;;24.50;59.90;;;;;;4995447;28;20033;-73
2022/08/02 03:22:46;;;;;;;19.27;7.45;;;24.60;59.40;;;;;;5013178;28;20030;-74
2022/08/02 03:25:13;;;;;;;20.55;6.88;;;24.50;59.70;;;;;;4996990;28;20026;-73
2022/08/02 03:27:39;;;;;;;19.88;6.45;;;24.60;59.80;;;;;;5013025;28;20030;-73
2022/08/02 03:30:08;;;;;;;23.73;8.90;;;24.50;59.80;;;;;;5011910;28;20022;-74
2022/08/02 03:32:35;;;;;;;20.00;7.15;;;24.50;59.70;;;;;;5013456;28;20056;-73
2022/08/02 03:35:03;;;;;;;17.92;6.75;;;24.50;59.50;;;;;;5013033;28;20034;-74
2022/08/02 03:37:30;;;;;;;19.88;6.82;;;24.50;59.80;;;;;;5013296;28;20031;-73
2022/08/02 03:39:57;;;;;;;21.95;7.40;;;24.50;59.60;;;;;;5012230;28;20455;-73
2022/08/02 03:42:25;;;;;;;19.48;6.72;;;24.50;59.90;;;;;;4995441;28;20018;-74
2022/08/02 03:44:52;;;;;;;18.50;6.78;;;24.50;59.70;;;;;;5011063;28;20121;-74
2022/08/02 03:47:20;;;;;;;20.13;6.45;;;24.50;59.60;;;;;;5012692;28;20386;-74
2022/08/02 03:49:46;;;;;;;19.40;7.25;;;24.50;59.00;;;;;;5013747;28;20475;-74
2022/08/02 03:52:13;;;;;;;20.40;6.45;;;24.50;59.70;;;;;;5014149;28;20471;-74
2022/08/02 03:54:39;;;;;;;19.02;6.55;;;24.40;59.70;;;;;;4991182;28;20117;-73
2022/08/02 03:57:09;;;;;;;20.30;7.05;;;24.50;59.80;;;;;;5012256;28;20097;-73
2022/08/02 03:59:42;;;;;;;20.02;7.00;;;24.50;59.70;;;;;;5012272;28;20155;-74
2022/08/02 04:02:08;;;;;;;19.02;6.40;;;24.40;59.80;;;;;;4995454;28;20022;-74
2022/08/02 04:04:34;;;;;;;13.60;5.65;;;24.40;59.70;;;;;;5011932;28;20014;-74
2022/08/02 04:07:00;;;;;;;18.13;6.00;;;24.40;59.60;;;;;;4996039;28;20498;-74
2022/08/02 04:09:27;;;;;;;17.20;6.20;;;24.40;59.70;;;;;;5011317;28;20073;-74
2022/08/02 04:11:53;;;;;;;17.77;5.72;;;24.40;59.60;;;;;;5014047;28;20111;-74
2022/08/02 04:14:19;;;;;;;18.50;6.50;;;24.40;59.50;;;;;;4994807;28;20030;-74
2022/08/02 04:16:57;;;;;;;15.15;6.03;;;24.40;59.50;;;;;;5008055;28;20486;-74
2022/08/02 04:19:31;;;;;;;16.27;5.63;;;24.40;59.60;;;;;;5012272;28;20030;-74
2022/08/02 04:21:59;;;;;;;15.02;6.10;;;24.40;59.50;;;;;;5012661;28;20056;-75
2022/08/02 04:24:30;;;;;;;16.38;5.25;;;24.40;59.70;;;;;;5011955;28;20018;-74
2022/08/02 04:26:58;;;;;;;14.95;6.10;;;24.40;59.70;;;;;;4994646;28;20026;-74
2022/08/02 04:29:26;;;;;;;17.83;6.30;;;24.40;59.60;;;;;;5010261;28;20085;-74
2022/08/02 04:31:53;;;;;;;15.32;5.68;;;24.40;59.80;;;;;;5012584;28;20485;-74
2022/08/02 04:34:19;;;;;;;15.27;5.03;;;24.40;59.60;;;;;;5011667;28;20030;-74
2022/08/02 04:36:46;;;;;;;14.75;5.50;;;24.40;59.60;;;;;;5012283;28;20504;-74
2022/08/02 04:39:13;;;;;;;15.02;5.68;;;24.40;59.70;;;;;;4993867;28;20121;-74
2022/08/02 04:41:43;;;;;;;17.33;5.55;;;24.40;59.60;;;;;;5010027;28;20026;-75
2022/08/02 04:44:09;;;;;;;14.30;5.00;;;24.40;59.60;;;;;;5012161;28;20022;-74
2022/08/02 04:46:36;;;;;;;15.63;5.10;;;24.40;59.70;;;;;;4995308;28;20101;-74
2022/08/02 04:49:02;;;;;;;15.90;4.97;;;24.40;59.50;;;;;;4993452;28;20041;-74
2022/08/02 04:51:27;;;;;;;14.88;5.18;;;24.40;59.50;;;;;;5011927;28;20026;-74
2022/08/02 04:53:53;;;;;;;14.65;5.25;;;24.40;59.40;;;;;;5010339;28;20032;-74
2022/08/02 04:56:19;;;;;;;16.17;5.38;;;24.40;59.60;;;;;;5011851;28;20041;-74
2022/08/02 04:58:45;;;;;;;14.38;5.30;;;24.40;59.50;;;;;;5012106;28;20226;-75
2022/08/02 05:01:10;;;;;;;12.68;5.22;;;24.40;59.60;;;;;;5011963;28;20055;-75
2022/08/02 05:03:36;;;;;;;14.07;4.82;;;24.40;59.50;;;;;;5012244;28;20050;-74
2022/08/02 05:06:02;;;;;;;12.98;4.80;;;24.40;59.60;;;;;;4994420;28;20100;-75
2022/08/02 05:08:28;;;;;;;15.98;5.32;;;24.40;59.50;;;;;;5010590;28;20029;-74
2022/08/02 05:10:54;;;;;;;14.25;5.00;;;24.40;59.50;;;;;;5011122;28;20539;-74
2022/08/02 05:13:20;;;;;;;16.15;5.05;;;24.40;59.30;;;;;;5011199;28;20368;-74
2022/08/02 05:15:51;;;;;;;13.55;4.90;;;24.40;59.50;;;;;;4995025;28;20033;-74
2022/08/02 05:18:17;;;;;;;12.32;4.80;;;24.40;59.50;;;;;;4961721;28;20037;-74
2022/08/02 05:20:43;;;;;;;15.40;4.97;;;24.40;59.50;;;;;;5012155;28;20037;-74
2022/08/02 05:23:09;;;;;;;14.93;4.57;;;24.40;59.50;;;;;;5012634;28;20501;-74
2022/08/02 05:25:35;;;;;;;11.52;4.43;;;24.40;59.50;;;;;;4993997;28;20026;-74
2022/08/02 05:28:00;;;;;;;11.88;4.90;;;24.40;59.50;;;;;;4992786;28;20030;-74
2022/08/02 05:30:26;;;;;;;14.50;4.93;;;24.40;59.60;;;;;;5010417;28;20418;-74
2022/08/02 05:32:52;;;;;;;12.35;4.78;;;24.40;59.50;;;;;;5010946;28;20030;-74
2022/08/02 05:35:23;;;;;;;9.55;4.25;;;24.40;59.50;;;;;;4992274;28;20462;-74
2022/08/02 05:37:50;;;;;;;13.27;5.65;;;24.40;59.60;;;;;;4991646;28;20034;-74
2022/08/02 05:40:17;;;;;;;15.55;5.90;;;24.40;59.50;;;;;;5009405;28;20032;-74
2022/08/02 05:42:43;;;;;;;15.23;5.88;;;24.40;59.50;;;;;;5010102;28;20029;-74
2022/08/02 05:45:10;;;;;;;14.95;6.53;;;24.40;59.30;;;;;;4993950;28;20057;-73
2022/08/02 05:47:36;;;;;;;13.52;5.65;;;24.40;59.30;;;;;;5011832;28;20029;-73
2022/08/02 05:50:03;;;;;;;13.40;6.00;;;24.40;59.20;;;;;;5009709;28;20386;-74
2022/08/02 05:52:46;;;;;;;14.73;5.47;;;24.40;59.30;;;;;;4996278;28;20021;-74
2022/08/02 05:55:16;;;;;;;17.77;5.65;;;24.40;58.90;;;;;;5002308;28;20497;-74
2022/08/02 05:57:59;;;;;;;11.95;5.15;;;24.30;59.00;;;;;;5011072;28;20037;-73
2022/08/02 06:00:32;;;;;;;14.00;5.13;;;24.40;59.20;;;;;;4992481;28;20030;-74
2022/08/02 06:03:22;;;;;;;12.52;4.68;;;24.40;59.20;;;;;;4975395;28;20049;-74
2022/08/02 06:05:50;;;;;;;13.73;5.32;;;24.40;59.00;;;;;;4975216;28;20025;-74
2022/08/02 06:08:18;;;;;;;13.55;5.55;;;24.40;59.10;;;;;;5012205;28;20030;-73
2022/08/02 06:10:47;;;;;;;12.38;5.07;;;24.30;59.00;;;;;;5001405;28;20040;-74
2022/08/02 06:13:15;;;;;;;13.18;4.93;;;24.40;59.10;;;;;;4994622;28;20022;-74
2022/08/02 06:15:42;;;;;;;16.58;5.75;;;24.30;59.00;;;;;;4989975;28;20034;-75
2022/08/02 06:18:08;;;;;;;14.57;5.20;;;24.30;59.10;;;;;;4992366;28;20060;-74
2022/08/02 06:20:35;;;;;;;13.20;4.72;;;24.30;57.90;;;;;;4994066;28;20030;-75
2022/08/02 06:23:06;;;;;;;11.63;4.38;;;24.30;56.60;;;;;;4993588;28;20030;-75
2022/08/02 06:25:36;;;;;;;24.00;13.77;;;24.30;56.10;;;;;;5008953;28;20100;-74
2022/08/02 06:28:04;;;;;;;19.45;8.43;;;24.30;55.20;;;;;;5010935;28;20049;-74
2022/08/02 06:30:31;;;;;;;19.80;10.85;;;24.20;55.20;;;;;;5009837;28;20036;-75
2022/08/02 06:32:57;;;;;;;22.05;10.90;;;24.20;54.70;;;;;;5007682;28;20026;-75
2022/08/02 06:35:32;;;;;;;17.48;8.77;;;24.20;54.70;;;;;;4990681;28;20032;-74
2022/08/02 06:38:02;;;;;;;15.27;8.18;;;24.20;54.50;;;;;;4991599;28;20120;-75
2022/08/02 06:40:39;;;;;;;15.00;6.70;;;24.20;55.00;;;;;;4998259;28;20033;-75
2022/08/02 06:43:20;;;;;;;16.55;5.78;;;24.20;54.90;;;;;;5008164;28;20029;-75
2022/08/02 06:45:46;;;;;;;15.00;5.28;;;24.20;54.60;;;;;;5005364;28;20054;-75
2022/08/02 06:48:12;;;;;;;15.13;5.47;;;24.20;53.50;;;;;;5008671;28;20052;-76
2022/08/02 06:50:38;;;;;;;16.83;5.28;;;24.20;54.20;;;;;;4990944;28;20041;-76
2022/08/02 06:53:05;;;;;;;13.82;5.28;;;24.20;54.10;;;;;;4992191;28;20025;-76
2022/08/02 06:55:31;;;;;;;11.93;4.85;;;24.20;53.90;;;;;;5010569;28;20026;-76
2022/08/02 06:57:57;;;;;;;15.73;4.70;;;24.20;54.00;;;;;;4993838;28;20045;-76
2022/08/02 07:00:23;;;;;;;13.05;3.85;;;24.20;53.90;;;;;;4994953;28;20044;-77
2022/08/02 07:02:49;;;;;;;12.98;5.30;;;24.20;53.90;;;;;;5010607;28;20101;-75
2022/08/02 07:05:15;;;;;;;13.20;3.97;;;24.20;54.10;;;;;;4979096;28;20032;-75
2022/08/02 07:07:41;;;;;;;10.05;3.65;;;24.20;53.90;;;;;;4976955;28;20046;-74
2022/08/02 07:10:07;;;;;;;7.88;3.30;;;24.20;53.80;;;;;;5012439;28;20402;-74
2022/08/02 07:12:34;;;;;;;8.30;3.60;;;24.20;53.70;;;;;;5011034;28;20061;-75
2022/08/02 07:15:03;;;;;;;10.60;3.80;;;24.20;53.10;;;;;;4995121;28;20094;-73
2022/08/02 07:17:29;;;;;;;;;;;24.20;53.40;;;;;;4994624;28;20042;-74
2022/08/02 07:19:55;;;;;;;11.00;2.90;;;24.20;54.00;;;;;;5007389;28;19940;-75
2022/08/02 07:22:23;;;;;;;12.45;3.28;;;24.20;53.10;;;;;;5012880;28;20409;-74
2022/08/02 07:24:49;;;;;;;13.82;5.60;;;24.20;53.10;;;;;;4992497;28;20018;-74
2022/08/02 07:27:15;;;;;;;11.15;3.45;;;24.20;53.60;;;;;;4994562;28;20034;-74
2022/08/02 07:29:41;;;;;;;12.30;4.57;;;24.20;53.20;;;;;;4977058;28;20552;-74
2022/08/02 07:32:07;;;;;;;13.07;4.78;;;24.30;53.50;;;;;;5012218;28;20041;-74
2022/08/02 07:34:33;;;;;;;12.00;4.07;;;24.30;53.60;;;;;;5011728;28;20017;-74
2022/08/02 07:36:59;;;;;;;13.25;4.20;;;24.30;53.20;;;;;;5011775;28;20037;-74
2022/08/02 07:39:25;;;;;;;11.65;4.18;;;24.30;54.00;;;;;;5011309;28;20030;-72
2022/08/02 07:41:51;;;;;;;18.13;3.25;;;24.30;53.80;;;;;;5008304;28;20040;-73
2022/08/02 07:44:18;;;;;;;13.45;5.80;;;24.20;52.10;;;;;;4994989;28;20018;-73
2022/08/02 07:46:45;;;;;;;14.52;5.65;;;24.20;52.30;;;;;;5011858;28;20117;-74
2022/08/02 07:49:17;;;;;;;13.88;4.88;;;24.10;52.70;;;;;;4978754;28;20041;-72
2022/08/02 07:51:44;;;;;;;13.15;3.58;;;24.20;52.30;;;;;;5008175;28;20402;-73
2022/08/02 07:54:09;;;;;;;7.88;3.00;;;24.20;52.10;;;;;;4978225;28;20132;-73
2022/08/02 07:56:36;;;;;;;9.38;2.58;;;24.20;51.60;;;;;;4976355;28;20531;-73
2022/08/02 07:59:02;;;;;;;5.85;1.95;;;24.10;50.90;;;;;;4994590;28;20030;-72
2022/08/02 08:01:28;;;;;;;10.38;3.05;;;24.00;51.00;;;;;;5011680;28;20025;-71
2022/08/02 08:03:54;;;;;;;57.35;6.03;;;24.10;51.40;;;;;;5012196;28;20033;-71
2022/08/02 08:06:20;;;;;;;14.10;3.50;;;24.20;51.70;;;;;;5013558;28;20466;-71
2022/08/02 08:08:46;;;;;;;27.08;4.20;;;24.30;52.30;;;;;;4993879;28;20064;-72
2022/08/02 08:11:12;;;;;;;50.90;6.18;;;24.40;53.00;;;;;;5001515;28;20041;-71
2022/08/02 08:13:38;;;;;;;73.93;8.77;;;24.50;53.80;;;;;;5002370;28;20029;-72
2022/08/02 08:16:05;;;;;;;78.35;9.27;;;24.50;56.90;;;;;;5002128;28;20486;-71
2022/08/02 08:18:31;;;;;;;38.85;6.13;;;24.60;61.60;;;;;;5008891;28;20081;-71
2022/08/02 08:20:56;;;;;;;29.48;5.50;;;24.60;57.20;;;;;;4995055;28;20029;-71
2022/08/02 08:23:23;;;;;;;27.05;4.55;;;24.60;56.00;;;;;;4980234;28;20501;-71
2022/08/02 08:25:49;;;;;;;35.95;5.20;;;24.60;55.20;;;;;;4978955;28;20040;-71
2022/08/02 08:28:15;;;;;;;40.10;5.57;;;24.60;57.50;;;;;;4996135;28;20026;-72
2022/08/02 08:30:41;;;;;;;32.42;4.35;;;24.60;56.70;;;;;;5011566;28;20048;-72
2022/08/02 08:33:08;;;;;;;28.30;4.40;;;24.60;56.90;;;;;;5009630;28;20065;-72
2022/08/02 08:35:34;;;;;;;24.02;4.32;;;24.60;55.90;;;;;;5009891;28;20022;-72
2022/08/02 08:38:00;;;;;;;27.80;4.15;;;24.60;55.10;;;;;;5011509;28;20113;-71
2022/08/02 08:40:26;;;;;;;28.55;8.23;;;24.60;55.00;;;;;;5007751;28;20116;-73
2022/08/02 08:42:52;;;;;;;23.45;6.70;;;24.60;54.60;;;;;;4993515;28;20076;-72
2022/08/02 08:45:17;;;;;;;19.75;5.78;;;24.60;54.50;;;;;;5011535;28;20022;-72
2022/08/02 08:47:51;;;;;;;22.25;5.07;;;24.60;54.30;;;;;;4982422;28;20375;-72
2022/08/02 08:50:20;;;;;;;22.00;5.20;;;24.60;54.10;;;;;;5010589;28;20026;-72
2022/08/02 08:52:56;;;;;;;16.65;4.68;;;24.60;55.40;;;;;;4976671;28;20449;-72
2022/08/02 08:55:23;;;;;;;23.35;5.10;;;24.70;55.90;;;;;;5009873;28;20030;-72
2022/08/02 08:57:50;;;;;;;14.35;4.50;;;24.70;56.00;;;;;;4991689;28;20241;-72
2022/08/02 09:00:16;;;;;;;22.77;4.72;;;24.70;55.50;;;;;;4994082;28;20029;-72
2022/08/02 09:02:43;;;;;;;18.23;4.25;;;24.70;56.20;;;;;;4994460;28;20057;-75
2022/08/02 09:05:10;;;;;;;14.50;4.40;;;24.70;55.30;;;;;;4995049;28;20017;-74
2022/08/02 09:07:36;;;;;;;13.50;3.53;;;24.70;57.00;;;;;;5011774;28;20096;-75
2022/08/02 09:10:41;;;;;;;17.08;4.07;;;24.70;53.90;;;;;;5009614;28;20063;-76
2022/08/02 09:13:10;;;;;;;14.43;3.05;;;24.70;55.60;;;;;;4979290;28;20065;-75
2022/08/02 09:15:37;;;;;;;15.63;3.67;;;24.60;53.80;;;;;;5012300;28;20423;-75
2022/08/02 09:18:04;;;;;;;8.70;2.72;;;24.70;54.00;;;;;;5009774;28;20748;-76
2022/08/02 09:20:32;;;;;;;13.57;3.08;;;24.70;53.10;;;;;;5012321;28;20022;-76
2022/08/02 09:23:10;;;;;;;14.95;3.17;;;24.60;53.60;;;;;;5012571;28;20060;-76
2022/08/02 09:25:37;;;;;;;12.80;2.92;;;24.70;53.80;;;;;;4993399;28;20517;-75
2022/08/02 09:28:06;;;;;;;18.05;3.10;;;24.70;53.60;;;;;;5008499;28;20037;-76
2022/08/02 09:30:41;;;;;;;10.23;3.30;;;24.80;53.70;;;;;;4975756;28;20030;-76
2022/08/02 09:33:08;;;;;;;11.25;2.90;;;24.80;54.40;;;;;;5012016;28;20034;-76
2022/08/02 09:35:36;;;;;;;9.65;2.65;;;24.80;53.50;;;;;;5009472;28;20073;-75
2022/08/02 09:38:10;;;;;;;8.07;2.67;;;24.70;53.10;;;;;;4977450;28;20026;-76
2022/08/02 09:40:37;;;;;;;6.05;2.47;;;24.70;53.50;;;;;;5011597;28;20028;-76
2022/08/02 09:43:04;;;;;;;12.38;2.45;;;24.80;52.30;;;;;;4994508;28;20029;-75
2022/08/02 09:45:35;;;;;;;11.52;2.80;;;24.70;53.00;;;;;;5011802;28;20442;-76
2022/08/02 09:48:02;;;;;;;9.98;2.70;;;24.70;52.70;;;;;;5012149;28;20072;-75
2022/08/02 09:50:28;;;;;;;12.18;2.83;;;24.70;53.70;;;;;;5012024;28;20034;-75
2022/08/02 09:52:55;;;;;;;10.13;3.05;;;24.80;54.10;;;;;;5012346;28;20037;-75
2022/08/02 09:55:21;;;;;;;7.50;2.30;;;24.70;54.10;;;;;;4994114;28;20026;-75
2022/08/02 09:57:47;;;;;;;7.80;1.92;;;24.70;54.30;;;;;;5011851;28;20026;-76
2022/08/02 10:00:13;;;;;;;7.00;2.20;;;24.70;52.50;;;;;;5011765;28;20552;-76
2022/08/02 10:02:39;;;;;;;7.38;1.70;;;24.70;52.10;;;;;;4994379;28;20431;-76
2022/08/02 10:05:05;;;;;;;9.55;2.42;;;24.70;51.00;;;;;;5011625;28;20073;-76
2022/08/02 10:07:31;;;;;;;6.40;2.10;;;24.70;52.90;;;;;;5011774;28;20034;-77
2022/08/02 10:09:57;;;;;;;4.65;1.67;;;24.80;52.50;;;;;;4994388;28;20374;-76
2022/08/02 10:12:23;;;;;;;5.90;1.98;;;24.70;51.90;;;;;;5011680;28;20516;-77
2022/08/02 10:14:53;;;;;;;4.88;1.73;;;24.70;53.30;;;;;;4994289;28;20026;-75
2022/08/02 10:17:20;;;;;;;4.72;1.80;;;24.70;52.60;;;;;;5011491;28;20075;-76
2022/08/02 10:19:47;;;;;;;9.90;2.33;;;24.80;52.80;;;;;;5011452;28;20026;-75
2022/08/02 10:22:14;;;;;;;5.05;2.05;;;24.70;51.50;;;;;;5011807;28;20033;-74
2022/08/02 10:24:41;;;;;;;7.55;2.33;;;24.80;52.90;;;;;;5011611;28;20030;-74
2022/08/02 10:27:14;;;;;;;3.17;1.65;;;24.80;52.60;;;;;;5011523;28;20029;-76
2022/08/02 10:29:42;;;;;;;5.82;1.92;;;24.80;52.20;;;;;;5015556;28;20029;-76
2022/08/02 10:32:11;;;;;;;5.00;1.98;;;24.80;52.30;;;;;;5015603;28;20022;-74
2022/08/02 10:34:43;;;;;;;4.60;1.88;;;24.80;52.10;;;;;;5015632;28;20026;-74
2022/08/02 10:37:12;;;;;;;5.30;2.03;;;24.80;51.50;;;;;;5015228;28;20037;-73
2022/08/02 10:39:38;;;;;;;6.90;2.22;;;24.80;52.20;;;;;;4998112;28;20120;-75
2022/08/02 10:42:04;;;;;;;6.38;2.00;;;24.80;53.50;;;;;;4998307;28;20471;-74
2022/08/02 10:44:32;;;;;;;9.38;2.60;;;24.80;52.80;;;;;;5015241;28;20083;-74
2022/08/02 10:47:20;;;;;;;5.75;1.70;;;24.80;53.30;;;;;;5015126;28;20053;-74
2022/08/02 10:49:51;;;;;;;8.10;1.87;;;24.80;51.40;;;;;;4997744;28;20030;-74
2022/08/02 10:52:18;;;;;;;6.45;2.13;;;24.80;51.90;;;;;;5014348;28;20287;-75
2022/08/02 10:54:59;;;;;;;5.15;1.90;;;24.80;53.40;;;;;;4998103;28;20068;-75
2022/08/02 10:57:30;;;;;;;5.63;1.85;;;24.80;53.90;;;;;;4996855;28;20450;-75
2022/08/02 10:59:59;;;;;;;6.70;1.70;;;24.80;52.80;;;;;;5014983;28;20030;-75
2022/08/02 11:02:45;;;;;;;7.00;1.67;;;24.80;51.50;;;;;;5015250;28;20061;-75
2022/08/02 11:05:26;;;;;;;8.52;2.30;;;24.80;51.50;;;;;;5014817;28;20044;-76
2022/08/02 11:07:52;;;;;;;8.68;2.33;;;24.80;51.70;;;;;;4997755;28;20030;-76
2022/08/02 11:10:29;;;;;;;4.72;1.67;;;24.80;50.40;;;;;;5014863;28;20049;-75
2022/08/02 11:13:13;;;;;;;5.78;2.05;;;24.80;51.20;;;;;;4997587;28;20045;-75
2022/08/02 11:16:00;;;;;;;7.15;2.20;;;24.80;52.50;;;;;;5014660;28;20081;-74
2022/08/02 11:18:44;;;;;;;9.18;2.30;;;24.80;49.60;;;;;;4997214;28;20088;-73
2022/08/02 11:21:31;;;;;;;8.02;2.80;;;24.80;53.30;;;;;;5014708;28;20029;-74
2022/08/02 11:24:30;;;;;;;10.52;2.50;;;24.90;54.90;;;;;;5014534;28;20053;-74
2022/08/02 11:26:58;;;;;;;9.90;2.28;;;24.90;53.60;;;;;;4980891;28;20038;-73
2022/08/02 11:29:37;;;;;;;9.63;2.60;;;24.90;54.10;;;;;;4996783;28;20502;-73
2022/08/02 11:32:04;;;;;;;6.82;2.03;;;24.90;52.60;;;;;;5014656;28;20066;-74
2022/08/02 11:34:32;;;;;;;6.72;1.95;;;24.90;50.40;;;;;;5014353;28;20037;-74
2022/08/02 11:36:58;;;;;;;6.57;1.90;;;24.90;50.10;;;;;;5015410;28;20080;-74
2022/08/02 11:39:24;;;;;;;6.38;1.80;;;24.90;51.40;;;;;;5022191;28;20577;-74
2022/08/02 11:41:58;;;;;;;8.23;3.08;;;24.90;51.70;;;;;;5007938;28;20101;-74
2022/08/02 11:44:25;;;;;;;11.73;4.05;;;24.90;52.20;;;;;;5034077;28;20104;-74
2022/08/02 11:47:01;;;;;;;12.60;3.92;;;24.90;51.70;;;;;;5033801;28;20500;-73
2022/08/02 11:49:28;;;;;;;8.57;2.78;;;24.90;51.90;;;;;;5033938;28;20033;-71
2022/08/02 11:51:59;;;;;;;14.65;3.95;;;24.90;52.80;;;;;;5011574;28;20033;-72
2022/08/02 11:54:27;;;;;;;14.45;3.17;;;24.90;51.00;;;;;;5014060;28;20109;-72
2022/08/02 11:56:54;;;;;;;9.40;2.80;;;25.00;50.50;;;;;;4996277;28;20022;-72
2022/08/02 11:59:19;;;;;;;14.40;3.00;;;25.00;50.70;;;;;;5012691;28;20109;-72
2022/08/02 12:01:45;;;;;;;7.38;2.55;;;24.90;50.60;;;;;;5012537;28;20029;-72
2022/08/02 12:04:16;;;;;;;11.32;2.70;;;24.90;51.20;;;;;;4980251;28;20033;-71
2022/08/02 12:06:41;;;;;;;7.75;2.88;;;24.90;50.90;;;;;;5013210;28;20029;-71
2022/08/02 12:09:12;;;;;;;10.55;3.08;;;24.90;51.80;;;;;;4996068;28;20030;-71
2022/08/02 12:11:38;;;;;;;7.15;2.70;;;24.90;52.20;;;;;;4991462;28;20030;-71
2022/08/02 12:14:05;;;;;;;5.82;2.10;;;24.90;52.50;;;;;;5013673;28;20033;-70
2022/08/02 12:19:28;;;;;;;6.28;2.00;;;24.90;52.10;;;;;;4996132;28;20124;-71
2022/08/02 12:22:22;;;;;;;9.75;2.20;;;24.90;50.00;;;;;;5013493;28;20025;-72
2022/08/02 12:24:50;;;;;;;4.63;2.05;;;24.90;51.00;;;;;;4995704;28;20498;-71
2022/08/02 12:27:35;;;;;;;7.40;1.98;;;24.90;51.50;;;;;;4996075;28;20098;-70
2022/08/02 12:30:07;;;;;;;4.60;1.73;;;24.90;51.20;;;;;;4995408;28;20048;-70
2022/08/02 12:32:34;;;;;;;5.65;1.80;;;24.90;50.20;;;;;;5013551;28;20441;-70
2022/08/02 12:35:21;;;;;;;5.35;1.95;;;24.90;50.30;;;;;;4995668;28;20129;-71
2022/08/02 12:37:48;;;;;;;4.90;1.80;;;24.90;49.90;;;;;;5013251;28;20398;-71
2022/08/02 12:40:22;;;;;;;4.28;1.80;;;24.90;50.30;;;;;;4995670;28;20034;-71
2022/08/02 12:42:50;;;;;;;5.47;1.50;;;24.90;51.40;;;;;;5013261;28;20033;-71
2022/08/02 12:45:16;;;;;;;5.15;1.85;;;24.90;50.30;;;;;;4995352;28;20144;-72
2022/08/02 12:47:51;;;;;;;7.97;2.03;;;24.90;49.60;;;;;;4995512;28;20034;-72
2022/08/02 12:50:33;;;;;;;5.43;1.80;;;24.90;49.50;;;;;;5013096;28;20034;-71
2022/08/02 12:53:11;;;;;;;5.10;1.70;;;24.90;51.70;;;;;;5012257;28;20126;-71